Time,TemperatureF,DewpointF,PressureIn,WindDirection,WindDirectionDegrees,WindSpeedMPH,WindSpeedGustMPH,Humidity,HourlyPrecipIn,Conditions,Clouds,dailyrainin,SoftwareType,DateUTC
2013-04-21 00:00:00,46.8,30.1,30.23,North,350,0.0,0.0,52,0.00,,---,0.00,VWS V14.01,2013-04-21 04:00:00,
2013-04-21 00:02:00,46.7,30.0,30.23,North,350,0.0,0.0,52,0.00,,---,0.00,VWS V14.01,2013-04-21 04:02:00,
2013-04-21 00:05:00,46.7,30.5,30.23,North,350,0.0,1.0,53,0.00,,---,0.00,VWS V14.01,2013-04-21 04:05:00,
2013-04-21 00:06:00,46.7,30.5,30.23,North,350,0.0,0.0,53,0.00,,---,0.00,VWS V14.01,2013-04-21 04:06:00,
2013-04-21 00:12:00,46.5,30.8,30.23,North,350,0.0,2.0,54,0.00,,---,0.00,VWS V14.01,2013-04-21 04:12:00,
2013-04-21 00:18:00,46.4,31.1,30.23,North,350,0.0,2.0,55,0.00,,---,0.00,VWS V14.01,2013-04-21 04:18:00,
2013-04-21 00:20:00,46.2,31.8,30.24,North,350,0.0,2.0,57,0.00,,---,0.00,VWS V14.01,2013-04-21 04:20:00,
2013-04-21 00:26:00,45.8,31.9,30.24,North,350,0.0,0.0,58,0.00,,---,0.00,VWS V14.01,2013-04-21 04:26:00,
2013-04-21 00:32:00,45.4,32.3,30.24,North,350,0.0,0.0,60,0.00,,---,0.00,VWS V14.01,2013-04-21 04:32:00,
2013-04-21 00:38:00,44.9,32.3,30.24,North,350,0.0,0.0,61,0.00,,---,0.00,VWS V14.01,2013-04-21 04:38:00,
2013-04-21 00:44:00,44.5,31.9,30.24,North,350,0.0,1.0,61,0.00,,---,0.00,VWS V14.01,2013-04-21 04:44:00,
2013-04-21 00:50:00,44.5,31.9,30.25,North,350,0.0,2.0,61,0.00,,---,0.00,VWS V14.01,2013-04-21 04:50:00,
2013-04-21 00:56:00,44.5,31.9,30.25,North,350,0.0,1.0,61,0.00,,---,0.00,VWS V14.01,2013-04-21 04:56:00,
2013-04-21 01:02:00,44.5,31.5,30.25,North,350,0.0,1.0,60,0.00,,---,0.00,VWS V14.01,2013-04-21 05:02:00,
2013-04-21 01:08:00,44.3,31.3,30.25,North,350,0.0,0.0,60,0.00,,---,0.00,VWS V14.01,2013-04-21 05:08:00,
2013-04-21 01:14:00,44.3,31.3,30.25,North,350,0.0,0.0,60,0.00,,---,0.00,VWS V14.01,2013-04-21 05:14:00,
2013-04-21 01:20:00,44.2,32.8,30.25,North,350,0.0,0.0,64,0.00,,---,0.00,VWS V14.01,2013-04-21 05:20:00,
2013-04-21 01:26:00,44.1,31.9,30.25,North,350,0.0,0.0,62,0.00,,---,0.00,VWS V14.01,2013-04-21 05:26:00,
2013-04-21 01:32:00,43.8,32.0,30.25,North,350,0.0,0.0,63,0.00,,---,0.00,VWS V14.01,2013-04-21 05:32:00,
2013-04-21 01:39:00,43.5,32.2,30.26,North,350,0.0,0.0,64,0.00,,---,0.00,VWS V14.01,2013-04-21 05:39:00,
2013-04-21 01:45:00,43.2,33.4,30.26,North,350,0.0,0.0,68,0.00,,---,0.00,VWS V14.01,2013-04-21 05:45:00,
2013-04-21 01:50:00,42.6,32.8,30.26,North,350,0.0,0.0,68,0.00,,---,0.00,VWS V14.01,2013-04-21 05:50:00,
2013-04-21 01:57:00,42.2,33.5,30.26,North,350,0.0,0.0,71,0.00,,---,0.00,VWS V14.01,2013-04-21 05:57:00,
2013-04-21 02:03:00,41.6,33.6,30.26,North,350,0.0,0.0,73,0.00,,---,0.00,VWS V14.01,2013-04-21 06:03:00,
2013-04-21 02:09:00,41.1,33.8,30.26,North,350,0.0,0.0,75,0.00,,---,0.00,VWS V14.01,2013-04-21 06:09:00,
2013-04-21 02:15:00,40.8,33.8,30.26,North,350,0.0,0.0,76,0.00,,---,0.00,VWS V14.01,2013-04-21 06:15:00,
2013-04-21 02:20:00,40.6,33.3,30.26,North,350,0.0,0.0,75,0.00,,---,0.00,VWS V14.01,2013-04-21 06:20:00,
2013-04-21 02:27:00,40.6,33.3,30.26,North,350,0.0,0.0,75,0.00,,---,0.00,VWS V14.01,2013-04-21 06:27:00,
2013-04-21 02:33:00,40.6,33.3,30.26,North,350,0.0,0.0,75,0.00,,---,0.00,VWS V14.01,2013-04-21 06:33:00,
2013-04-21 02:39:00,40.5,33.2,30.26,North,350,0.0,0.0,75,0.00,,---,0.00,VWS V14.01,2013-04-21 06:39:00,
2013-04-21 02:45:00,40.5,33.5,30.26,North,350,0.0,1.0,76,0.00,,---,0.00,VWS V14.01,2013-04-21 06:45:00,
2013-04-21 02:50:00,40.5,33.5,30.27,NNE,14,0.0,3.0,76,0.00,,---,0.00,VWS V14.01,2013-04-21 06:50:00,
2013-04-21 02:57:00,40.5,32.2,30.27,North,359,0.0,2.0,72,0.00,,---,0.00,VWS V14.01,2013-04-21 06:57:00,
2013-04-21 03:03:00,40.8,32.8,30.27,North,359,0.0,2.0,73,0.00,,---,0.00,VWS V14.01,2013-04-21 07:03:00,
2013-04-21 03:09:00,40.8,32.8,30.27,North,359,0.0,0.0,73,0.00,,---,0.00,VWS V14.01,2013-04-21 07:09:00,
2013-04-21 03:15:00,40.5,33.9,30.27,North,359,0.0,0.0,77,0.00,,---,0.00,VWS V14.01,2013-04-21 07:15:00,
2013-04-21 03:20:00,40.2,33.2,30.28,North,359,0.0,0.0,76,0.00,,---,0.00,VWS V14.01,2013-04-21 07:20:00,
2013-04-21 03:27:00,39.9,33.3,30.28,North,359,0.0,0.0,77,0.00,,---,0.00,VWS V14.01,2013-04-21 07:27:00,
2013-04-21 03:33:00,39.3,33.3,30.28,North,359,0.0,0.0,79,0.00,,---,0.00,VWS V14.01,2013-04-21 07:33:00,
2013-04-21 03:39:00,39.1,32.8,30.28,North,359,0.0,0.0,78,0.00,,---,0.00,VWS V14.01,2013-04-21 07:39:00,
2013-04-21 03:45:00,39.1,32.5,30.28,North,359,0.0,0.0,77,0.00,,---,0.00,VWS V14.01,2013-04-21 07:45:00,
2013-04-21 03:50:00,39.1,33.2,30.29,North,359,0.0,0.0,79,0.00,,---,0.00,VWS V14.01,2013-04-21 07:50:00,
2013-04-21 03:57:00,39.2,32.6,30.29,North,359,0.0,0.0,77,0.00,,---,0.00,VWS V14.01,2013-04-21 07:57:00,
2013-04-21 04:03:00,39.3,32.7,30.29,North,359,0.0,0.0,77,0.00,,---,0.00,VWS V14.01,2013-04-21 08:03:00,
2013-04-21 04:09:00,39.3,33.0,30.30,North,359,0.0,0.0,78,0.00,,---,0.00,VWS V14.01,2013-04-21 08:09:00,
2013-04-21 04:15:00,39.3,32.7,30.30,North,359,0.0,0.0,77,0.00,,---,0.00,VWS V14.01,2013-04-21 08:15:00,
2013-04-21 04:20:00,39.1,33.5,30.31,North,359,0.0,0.0,80,0.00,,---,0.00,VWS V14.01,2013-04-21 08:20:00,
2013-04-21 04:27:00,38.6,33.0,30.31,North,359,0.0,0.0,80,0.00,,---,0.00,VWS V14.01,2013-04-21 08:27:00,
2013-04-21 04:33:00,38.6,33.0,30.31,North,359,0.0,0.0,80,0.00,,---,0.00,VWS V14.01,2013-04-21 08:33:00,
2013-04-21 04:39:00,38.6,33.0,30.31,North,359,0.0,0.0,80,0.00,,---,0.00,VWS V14.01,2013-04-21 08:39:00,
2013-04-21 04:45:00,38.6,32.3,30.31,North,359,0.0,0.0,78,0.00,,---,0.00,VWS V14.01,2013-04-21 08:45:00,
2013-04-21 04:50:00,38.6,31.7,30.32,North,359,0.0,0.0,76,0.00,,---,0.00,VWS V14.01,2013-04-21 08:50:00,
2013-04-21 04:55:00,38.9,31.0,30.32,North,1,0.0,1.0,73,0.00,,---,0.00,VWS V14.01,2013-04-21 08:55:00,
2013-04-21 05:01:00,39.2,31.0,30.32,North,1,0.0,1.0,72,0.00,,---,0.00,VWS V14.01,2013-04-21 09:01:00,
2013-04-21 05:07:00,39.2,31.3,30.32,North,1,0.0,0.0,73,0.00,,---,0.00,VWS V14.01,2013-04-21 09:07:00,
2013-04-21 05:13:00,39.2,31.6,30.32,North,1,0.0,0.0,74,0.00,,---,0.00,VWS V14.01,2013-04-21 09:13:00,
2013-04-21 05:20:00,39.1,31.5,30.33,North,1,0.0,0.0,74,0.00,,---,0.00,VWS V14.01,2013-04-21 09:20:00,
2013-04-21 05:26:00,38.9,31.3,30.33,North,1,0.0,1.0,74,0.00,,---,0.00,VWS V14.01,2013-04-21 09:26:00,
2013-04-21 05:32:00,39.1,29.8,30.33,NNW,331,0.0,5.0,69,0.00,,---,0.00,VWS V14.01,2013-04-21 09:32:00,
2013-04-21 05:38:00,39.3,30.7,30.34,NNW,331,0.0,0.0,71,0.00,,---,0.00,VWS V14.01,2013-04-21 09:38:00,
2013-04-21 05:44:00,39.2,30.6,30.34,NNW,331,2.0,2.0,71,0.00,,---,0.00,VWS V14.01,2013-04-21 09:44:00,
2013-04-21 05:50:00,39.5,29.1,30.35,NNW,332,0.0,3.0,66,0.00,,---,0.00,VWS V14.01,2013-04-21 09:50:00,
2013-04-21 05:56:00,39.6,29.2,30.35,NNW,338,0.0,0.0,66,0.00,,---,0.00,VWS V14.01,2013-04-21 09:56:00,
2013-04-21 06:02:00,39.8,29.0,30.35,NNW,338,1.0,2.0,65,0.00,,---,0.00,VWS V14.01,2013-04-21 10:02:00,
2013-04-21 06:08:00,39.9,28.3,30.35,NNW,338,0.0,3.0,63,0.00,,---,0.00,VWS V14.01,2013-04-21 10:08:00,
2013-04-21 06:14:00,40.2,28.2,30.35,NNE,27,0.0,3.0,62,0.00,,---,0.00,VWS V14.01,2013-04-21 10:14:00,
2013-04-21 06:20:00,40.3,28.3,30.36,NNE,27,0.0,3.0,62,0.00,,---,0.00,VWS V14.01,2013-04-21 10:20:00,
2013-04-21 06:26:00,40.3,28.3,30.36,NNE,27,0.0,0.0,62,0.00,,---,0.00,VWS V14.01,2013-04-21 10:26:00,
2013-04-21 06:32:00,40.2,27.8,30.36,NNE,27,0.0,0.0,61,0.00,,---,0.00,VWS V14.01,2013-04-21 10:32:00,
2013-04-21 06:38:00,40.2,28.2,30.37,NNE,27,0.0,0.0,62,0.00,,---,0.00,VWS V14.01,2013-04-21 10:38:00,
2013-04-21 06:44:00,40.2,27.8,30.37,NNW,335,0.0,2.0,61,0.00,,---,0.00,VWS V14.01,2013-04-21 10:44:00,
2013-04-21 06:50:00,40.2,27.4,30.39,NNW,335,0.0,3.0,60,0.00,,---,0.00,VWS V14.01,2013-04-21 10:50:00,
2013-04-21 06:56:00,40.5,27.7,30.39,North,1,0.0,2.0,60,0.00,,---,0.00,VWS V14.01,2013-04-21 10:56:00,
2013-04-21 07:02:00,40.5,27.7,30.39,NNW,346,0.0,3.0,60,0.00,,---,0.00,VWS V14.01,2013-04-21 11:02:00,
2013-04-21 07:08:00,40.6,27.8,30.39,NNE,32,0.0,2.0,60,0.00,,---,0.00,VWS V14.01,2013-04-21 11:08:00,
2013-04-21 07:14:00,40.6,28.2,30.39,NNE,32,0.0,2.0,61,0.00,,---,0.00,VWS V14.01,2013-04-21 11:14:00,
2013-04-21 07:20:00,40.6,27.8,30.40,ESE,117,0.0,2.0,60,0.00,,---,0.00,VWS V14.01,2013-04-21 11:20:00,
2013-04-21 07:26:00,40.8,28.0,30.40,NW,313,0.0,2.0,60,0.00,,---,0.00,VWS V14.01,2013-04-21 11:26:00,
2013-04-21 07:32:00,41.1,28.7,30.40,North,359,3.0,5.0,61,0.00,,---,0.00,VWS V14.01,2013-04-21 11:32:00,
2013-04-21 07:38:00,41.2,28.0,30.42,ENE,66,0.0,0.0,59,0.00,,---,0.00,VWS V14.01,2013-04-21 11:38:00,
2013-04-21 07:44:00,41.2,28.0,30.42,NW,325,0.0,1.0,59,0.00,,---,0.00,VWS V14.01,2013-04-21 11:44:00,
2013-04-21 07:50:00,41.3,28.1,30.43,NW,325,0.0,1.0,59,0.00,,---,0.00,VWS V14.01,2013-04-21 11:50:00,
2013-04-21 07:56:00,41.5,28.3,30.43,NNW,328,0.0,3.0,59,0.00,,---,0.00,VWS V14.01,2013-04-21 11:56:00,
2013-04-21 08:02:00,41.8,27.3,30.43,North,9,4.0,4.0,56,0.00,,---,0.00,VWS V14.01,2013-04-21 12:02:00,
2013-04-21 08:08:00,42.1,27.5,30.44,NNE,18,0.0,6.0,56,0.00,,---,0.00,VWS V14.01,2013-04-21 12:08:00,
2013-04-21 08:14:00,42.3,27.7,30.44,NNE,27,2.0,6.0,56,0.00,,---,0.00,VWS V14.01,2013-04-21 12:14:00,
2013-04-21 08:20:00,42.6,28.0,30.43,East,80,1.0,6.0,56,0.00,,---,0.00,VWS V14.01,2013-04-21 12:20:00,
2013-04-21 08:26:00,42.9,27.9,30.43,ENE,68,0.0,5.0,55,0.00,,---,0.00,VWS V14.01,2013-04-21 12:26:00,
2013-04-21 08:32:00,43.2,28.1,30.43,NNE,26,0.0,5.0,55,0.00,,---,0.00,VWS V14.01,2013-04-21 12:32:00,
2013-04-21 08:38:00,43.6,28.1,30.45,NNE,26,0.0,1.0,54,0.00,,---,0.00,VWS V14.01,2013-04-21 12:38:00,
2013-04-21 08:44:00,43.8,28.2,30.45,East,83,0.0,6.0,54,0.00,,---,0.00,VWS V14.01,2013-04-21 12:44:00,
2013-04-21 08:50:00,44.2,27.7,30.45,NNE,21,0.0,6.0,52,0.00,,---,0.00,VWS V14.01,2013-04-21 12:50:00,
2013-04-21 08:56:00,44.5,27.5,30.45,NE,39,0.0,3.0,51,0.00,,---,0.00,VWS V14.01,2013-04-21 12:56:00,
2013-04-21 09:02:00,45.1,28.1,30.45,ENE,70,5.0,5.0,51,0.00,,---,0.00,VWS V14.01,2013-04-21 13:02:00,
2013-04-21 09:08:00,45.4,27.4,30.45,ENE,58,0.0,4.0,49,0.00,,---,0.00,VWS V14.01,2013-04-21 13:08:00,
2013-04-21 09:14:00,46.0,28.4,30.45,ENE,70,0.0,4.0,50,0.00,,---,0.00,VWS V14.01,2013-04-21 13:14:00,
2013-04-21 09:20:00,46.4,28.3,30.45,NE,40,3.0,4.0,49,0.00,,---,0.00,VWS V14.01,2013-04-21 13:20:00,
2013-04-21 09:26:00,46.8,29.2,30.45,ENE,66,0.0,5.0,50,0.00,,---,0.00,VWS V14.01,2013-04-21 13:26:00,
2013-04-21 09:32:00,47.1,27.4,30.45,ENE,70,1.0,5.0,46,0.00,,---,0.00,VWS V14.01,2013-04-21 13:32:00,
2013-04-21 09:39:00,47.4,28.7,30.45,ENE,62,0.0,8.0,48,0.00,,---,0.00,VWS V14.01,2013-04-21 13:39:00,
2013-04-21 09:45:00,47.6,28.4,30.45,ENE,64,0.0,8.0,47,0.00,,---,0.00,VWS V14.01,2013-04-21 13:45:00,
2013-04-21 09:50:00,47.9,29.7,30.45,NNE,19,2.0,8.0,49,0.00,,---,0.00,VWS V14.01,2013-04-21 13:50:00,
2013-04-21 09:57:00,48.2,28.4,30.45,NNE,29,0.0,3.0,46,0.00,,---,0.00,VWS V14.01,2013-04-21 13:57:00,
2013-04-21 10:03:00,48.8,30.5,30.45,North,6,0.0,3.0,49,0.00,,---,0.00,VWS V14.01,2013-04-21 14:03:00,
2013-04-21 10:09:00,49.5,29.1,30.45,NNE,22,0.0,4.0,45,0.00,,---,0.00,VWS V14.01,2013-04-21 14:09:00,
2013-04-21 10:15:00,49.8,28.8,30.45,NE,55,0.0,4.0,44,0.00,,---,0.00,VWS V14.01,2013-04-21 14:15:00,
2013-04-21 10:20:00,50.4,28.2,30.47,NNE,29,0.0,5.0,42,0.00,,---,0.00,VWS V14.01,2013-04-21 14:20:00,
2013-04-21 10:27:00,50.4,28.8,30.47,NNE,23,4.0,4.0,43,0.00,,---,0.00,VWS V14.01,2013-04-21 14:27:00,
2013-04-21 10:33:00,50.4,29.3,30.47,NE,46,0.0,4.0,44,0.00,,---,0.00,VWS V14.01,2013-04-21 14:33:00,
2013-04-21 10:39:00,50.7,28.5,30.47,NE,51,0.0,4.0,42,0.00,,---,0.00,VWS V14.01,2013-04-21 14:39:00,
2013-04-21 10:45:00,50.4,27.6,30.47,NE,39,0.0,4.0,41,0.00,,---,0.00,VWS V14.01,2013-04-21 14:45:00,
2013-04-21 10:50:00,49.9,30.0,30.47,North,6,0.0,4.0,46,0.00,,---,0.00,VWS V14.01,2013-04-21 14:50:00,
2013-04-21 10:57:00,50.7,30.7,30.47,NNE,33,0.0,3.0,46,0.00,,---,0.00,VWS V14.01,2013-04-21 14:57:00,
2013-04-21 11:03:00,51.3,30.1,30.47,North,1,0.0,5.0,44,0.00,,---,0.00,VWS V14.01,2013-04-21 15:03:00,
2013-04-21 11:09:00,51.7,30.5,30.46,NNW,340,0.0,9.0,44,0.00,,---,0.00,VWS V14.01,2013-04-21 15:09:00,
2013-04-21 11:15:00,52.5,29.5,30.46,ENE,77,5.0,9.0,41,0.00,,---,0.00,VWS V14.01,2013-04-21 15:15:00,
2013-04-21 11:20:00,52.9,30.5,30.46,North,350,0.0,13.0,42,0.00,,---,0.00,VWS V14.01,2013-04-21 15:20:00,
2013-04-21 11:27:00,53.5,29.8,30.46,South,179,0.0,4.0,40,0.00,,---,0.00,VWS V14.01,2013-04-21 15:27:00,
2013-04-21 11:33:00,54.2,33.9,30.46,East,82,0.0,4.0,46,0.00,,---,0.00,VWS V14.01,2013-04-21 15:33:00,
2013-04-21 11:39:00,55.1,30.0,30.46,NNE,20,0.0,5.0,38,0.00,,---,0.00,VWS V14.01,2013-04-21 15:39:00,
2013-04-21 11:45:00,55.0,31.8,30.46,NE,49,0.0,5.0,41,0.00,,---,0.00,VWS V14.01,2013-04-21 15:45:00,
2013-04-21 11:50:00,55.4,32.7,30.46,NNE,24,0.0,5.0,42,0.00,,---,0.00,VWS V14.01,2013-04-21 15:50:00,
2013-04-21 11:57:00,56.0,30.8,30.46,NE,56,0.0,5.0,38,0.00,,---,0.00,VWS V14.01,2013-04-21 15:57:00,
2013-04-21 12:03:00,56.5,32.5,30.46,NNW,332,0.0,5.0,40,0.00,,---,0.00,VWS V14.01,2013-04-21 16:03:00,
2013-04-21 12:09:00,56.3,33.5,30.46,ENE,67,2.0,5.0,42,0.00,,---,0.00,VWS V14.01,2013-04-21 16:09:00,
2013-04-21 12:15:00,55.9,29.4,30.46,North,349,1.0,5.0,36,0.00,,---,0.00,VWS V14.01,2013-04-21 16:15:00,
2013-04-21 12:20:00,54.7,31.5,30.45,NE,41,0.0,5.0,41,0.00,,---,0.00,VWS V14.01,2013-04-21 16:20:00,
2013-04-21 12:27:00,54.8,31.0,30.45,SSW,211,0.0,2.0,40,0.00,,---,0.00,VWS V14.01,2013-04-21 16:27:00,
2013-04-21 12:33:00,55.4,35.0,30.45,SSW,206,0.0,2.0,46,0.00,,---,0.00,VWS V14.01,2013-04-21 16:33:00,
2013-04-21 12:39:00,55.4,30.9,30.45,North,351,0.0,1.0,39,0.00,,---,0.00,VWS V14.01,2013-04-21 16:39:00,
2013-04-21 12:45:00,55.1,33.0,30.45,NW,308,0.0,3.0,43,0.00,,---,0.00,VWS V14.01,2013-04-21 16:45:00,
2013-04-21 12:50:00,55.6,33.5,30.44,ENE,65,0.0,4.0,43,0.00,,---,0.00,VWS V14.01,2013-04-21 16:50:00,
2013-04-21 12:57:00,56.3,30.4,30.44,NE,49,0.0,3.0,37,0.00,,---,0.00,VWS V14.01,2013-04-21 16:57:00,
2013-04-21 13:03:00,56.0,30.1,30.44,North,354,1.0,5.0,37,0.00,,---,0.00,VWS V14.01,2013-04-21 17:03:00,
2013-04-21 13:09:00,56.5,33.1,30.43,NNE,30,0.0,4.0,41,0.00,,---,0.00,VWS V14.01,2013-04-21 17:09:00,
2013-04-21 13:15:00,57.0,33.5,30.43,NNW,338,3.0,4.0,41,0.00,,---,0.00,VWS V14.01,2013-04-21 17:15:00,
2013-04-21 13:20:00,56.3,32.3,30.43,ENE,68,0.0,9.0,40,0.00,,---,0.00,VWS V14.01,2013-04-21 17:20:00,
2013-04-21 13:25:00,56.7,30.1,30.43,NNE,30,0.0,1.0,36,0.00,,---,0.00,VWS V14.01,2013-04-21 17:25:00,
2013-04-21 13:31:00,57.5,32.8,30.43,North,359,2.0,7.0,39,0.00,,---,0.00,VWS V14.01,2013-04-21 17:31:00,
2013-04-21 13:37:00,58.3,34.7,30.42,ENE,72,0.0,4.0,41,0.00,,---,0.00,VWS V14.01,2013-04-21 17:37:00,
2013-04-21 13:43:00,58.9,32.7,30.42,NNE,30,0.0,4.0,37,0.00,,---,0.00,VWS V14.01,2013-04-21 17:43:00,
2013-04-21 13:49:00,58.7,31.8,30.42,North,354,0.0,6.0,36,0.00,,---,0.00,VWS V14.01,2013-04-21 17:49:00,
2013-04-21 13:56:00,59.0,33.5,30.42,NE,44,4.0,4.0,38,0.00,,---,0.00,VWS V14.01,2013-04-21 17:56:00,
2013-04-21 14:02:00,59.2,33.0,30.42,South,173,2.0,4.0,37,0.00,,---,0.00,VWS V14.01,2013-04-21 18:02:00,
2013-04-21 14:08:00,59.3,33.0,30.41,North,1,2.0,4.0,37,0.00,,---,0.00,VWS V14.01,2013-04-21 18:08:00,
2013-04-21 14:14:00,59.2,33.6,30.41,North,1,0.0,4.0,38,0.00,,---,0.00,VWS V14.01,2013-04-21 18:14:00,
2013-04-21 14:20:00,59.6,32.6,30.41,East,84,2.0,5.0,36,0.00,,---,0.00,VWS V14.01,2013-04-21 18:20:00,
2013-04-21 14:26:00,59.6,35.3,30.41,North,7,1.0,6.0,40,0.00,,---,0.00,VWS V14.01,2013-04-21 18:26:00,
2013-04-21 14:32:00,59.2,36.1,30.41,NE,53,0.0,6.0,42,0.00,,---,0.00,VWS V14.01,2013-04-21 18:32:00,
2013-04-21 14:38:00,59.9,34.2,30.40,East,82,0.0,0.0,38,0.00,,---,0.00,VWS V14.01,2013-04-21 18:38:00,
2013-04-21 14:44:00,60.4,34.0,30.40,North,1,0.0,5.0,37,0.00,,---,0.00,VWS V14.01,2013-04-21 18:44:00,
2013-04-21 14:50:00,60.5,32.7,30.40,North,1,0.0,6.0,35,0.00,,---,0.00,VWS V14.01,2013-04-21 18:50:00,
2013-04-21 14:56:00,60.4,34.7,30.40,ENE,65,0.0,2.0,38,0.00,,---,0.00,VWS V14.01,2013-04-21 18:56:00,
2013-04-21 15:02:00,61.6,38.9,30.40,ENE,62,0.0,3.0,43,0.00,,---,0.00,VWS V14.01,2013-04-21 19:02:00,
2013-04-21 15:08:00,62.1,34.2,30.40,East,83,0.0,4.0,35,0.00,,---,0.00,VWS V14.01,2013-04-21 19:08:00,
2013-04-21 15:14:00,62.6,31.6,30.40,ENE,66,1.0,4.0,31,0.00,,---,0.00,VWS V14.01,2013-04-21 19:14:00,
2013-04-21 15:20:00,63.2,35.1,30.39,North,6,0.0,4.0,35,0.00,,---,0.00,VWS V14.01,2013-04-21 19:20:00,
2013-04-21 15:26:00,63.2,32.1,30.39,ENE,57,2.0,3.0,31,0.00,,---,0.00,VWS V14.01,2013-04-21 19:26:00,
2013-04-21 15:32:00,62.7,36.8,30.39,North,2,0.0,4.0,38,0.00,,---,0.00,VWS V14.01,2013-04-21 19:32:00,
2013-04-21 15:38:00,62.7,32.4,30.39,ENE,76,1.0,2.0,32,0.00,,---,0.00,VWS V14.01,2013-04-21 19:38:00,
2013-04-21 15:44:00,63.4,35.3,30.39,ENE,75,0.0,2.0,35,0.00,,---,0.00,VWS V14.01,2013-04-21 19:44:00,
2013-04-21 15:50:00,63.5,33.9,30.39,East,79,0.0,4.0,33,0.00,,---,0.00,VWS V14.01,2013-04-21 19:50:00,
2013-04-21 15:56:00,63.4,36.0,30.39,ENE,71,0.0,4.0,36,0.00,,---,0.00,VWS V14.01,2013-04-21 19:56:00,
2013-04-21 16:02:00,63.5,33.9,30.39,ENE,71,0.0,4.0,33,0.00,,---,0.00,VWS V14.01,2013-04-21 20:02:00,
2013-04-21 16:08:00,62.9,33.4,30.38,ENE,72,0.0,0.0,33,0.00,,---,0.00,VWS V14.01,2013-04-21 20:08:00,
2013-04-21 16:14:00,63.4,35.3,30.38,NE,56,0.0,1.0,35,0.00,,---,0.00,VWS V14.01,2013-04-21 20:14:00,
2013-04-21 16:20:00,64.3,33.0,30.38,North,9,2.0,4.0,31,0.00,,---,0.00,VWS V14.01,2013-04-21 20:20:00,
2013-04-21 16:26:00,62.7,34.0,30.38,East,85,0.0,4.0,34,0.00,,---,0.00,VWS V14.01,2013-04-21 20:26:00,
2013-04-21 16:32:00,62.3,36.4,30.38,North,0,0.0,5.0,38,0.00,,---,0.00,VWS V14.01,2013-04-21 20:32:00,
2013-04-21 16:38:00,61.0,35.2,30.37,NE,56,0.0,0.0,38,0.00,,---,0.00,VWS V14.01,2013-04-21 20:38:00,
2013-04-21 16:44:00,61.0,33.2,30.37,South,172,0.0,3.0,35,0.00,,---,0.00,VWS V14.01,2013-04-21 20:44:00,
2013-04-21 16:50:00,62.3,34.3,30.37,SE,142,0.0,3.0,35,0.00,,---,0.00,VWS V14.01,2013-04-21 20:50:00,
2013-04-21 16:56:00,62.9,32.6,30.37,SSE,148,0.0,3.0,32,0.00,,---,0.00,VWS V14.01,2013-04-21 20:56:00,
2013-04-21 17:02:00,63.5,35.4,30.37,ENE,73,0.0,6.0,35,0.00,,---,0.00,VWS V14.01,2013-04-21 21:02:00,
2013-04-21 17:08:00,64.3,35.4,30.37,NE,52,0.0,3.0,34,0.00,,---,0.00,VWS V14.01,2013-04-21 21:08:00,
2013-04-21 17:14:00,64.8,35.0,30.37,SE,134,0.0,5.0,33,0.00,,---,0.00,VWS V14.01,2013-04-21 21:14:00,
2013-04-21 17:20:00,65.3,33.9,30.36,SE,136,3.0,5.0,31,0.00,,---,0.00,VWS V14.01,2013-04-21 21:20:00,
2013-04-21 17:26:00,65.2,33.0,30.36,East,92,0.0,3.0,30,0.00,,---,0.00,VWS V14.01,2013-04-21 21:26:00,
2013-04-21 17:33:00,64.8,35.8,30.36,NE,52,0.0,4.0,34,0.00,,---,0.00,VWS V14.01,2013-04-21 21:33:00,
2013-04-21 17:39:00,65.0,33.7,30.37,ENE,59,0.0,3.0,31,0.00,,---,0.00,VWS V14.01,2013-04-21 21:39:00,
2013-04-21 17:45:00,64.8,33.5,30.37,East,79,0.0,3.0,31,0.00,,---,0.00,VWS V14.01,2013-04-21 21:45:00,
2013-04-21 17:50:00,64.3,33.0,30.37,South,172,0.0,4.0,31,0.00,,---,0.00,VWS V14.01,2013-04-21 21:50:00,
2013-04-21 17:57:00,63.5,35.4,30.37,SSW,209,0.0,2.0,35,0.00,,---,0.00,VWS V14.01,2013-04-21 21:57:00,
2013-04-21 18:03:00,62.7,35.4,30.37,East,97,0.0,2.0,36,0.00,,---,0.00,VWS V14.01,2013-04-21 22:03:00,
2013-04-21 18:09:00,62.0,36.1,30.37,East,97,0.0,0.0,38,0.00,,---,0.00,VWS V14.01,2013-04-21 22:09:00,
2013-04-21 18:15:00,61.3,34.1,30.37,WSW,255,0.0,2.0,36,0.00,,---,0.00,VWS V14.01,2013-04-21 22:15:00,
2013-04-21 18:20:00,60.7,33.6,30.37,SSE,167,0.0,2.0,36,0.00,,---,0.00,VWS V14.01,2013-04-21 22:20:00,
2013-04-21 18:27:00,60.4,34.7,30.37,SSE,152,0.0,2.0,38,0.00,,---,0.00,VWS V14.01,2013-04-21 22:27:00,
2013-04-21 18:33:00,60.2,33.8,30.37,NW,320,0.0,2.0,37,0.00,,---,0.00,VWS V14.01,2013-04-21 22:33:00,
2013-04-21 18:39:00,60.2,34.5,30.37,NW,320,0.0,0.0,38,0.00,,---,0.00,VWS V14.01,2013-04-21 22:39:00,
2013-04-21 18:45:00,60.1,33.8,30.37,ESE,103,3.0,3.0,37,0.00,,---,0.00,VWS V14.01,2013-04-21 22:45:00,
2013-04-21 18:50:00,59.6,34.0,30.37,NNW,347,0.0,3.0,38,0.00,,---,0.00,VWS V14.01,2013-04-21 22:50:00,
2013-04-21 18:57:00,59.2,34.9,30.37,NNW,347,0.0,0.0,40,0.00,,---,0.00,VWS V14.01,2013-04-21 22:57:00,
2013-04-21 19:03:00,58.9,34.0,30.37,NW,316,0.0,2.0,39,0.00,,---,0.00,VWS V14.01,2013-04-21 23:03:00,
2013-04-21 19:09:00,58.6,34.4,30.37,NW,316,0.0,0.0,40,0.00,,---,0.00,VWS V14.01,2013-04-21 23:09:00,
2013-04-21 19:15:00,58.1,34.5,30.37,North,359,0.0,1.0,41,0.00,,---,0.00,VWS V14.01,2013-04-21 23:15:00,
2013-04-21 19:20:00,57.6,35.3,30.37,North,359,0.0,1.0,43,0.00,,---,0.00,VWS V14.01,2013-04-21 23:20:00,
2013-04-21 19:27:00,57.2,34.3,30.37,North,359,0.0,0.0,42,0.00,,---,0.00,VWS V14.01,2013-04-21 23:27:00,
2013-04-21 19:33:00,56.7,33.9,30.37,North,359,0.0,0.0,42,0.00,,---,0.00,VWS V14.01,2013-04-21 23:33:00,
2013-04-21 19:39:00,56.5,34.3,30.38,North,359,0.0,0.0,43,0.00,,---,0.00,VWS V14.01,2013-04-21 23:39:00,
2013-04-21 19:45:00,56.2,34.6,30.38,North,359,0.0,0.0,44,0.00,,---,0.00,VWS V14.01,2013-04-21 23:45:00,
2013-04-21 19:50:00,55.9,34.3,30.39,North,359,0.0,0.0,44,0.00,,---,0.00,VWS V14.01,2013-04-21 23:50:00,
2013-04-21 19:57:00,55.3,34.9,30.39,North,359,0.0,1.0,46,0.00,,---,0.00,VWS V14.01,2013-04-21 23:57:00,
2013-04-21 20:03:00,54.8,34.4,30.39,North,359,0.0,1.0,46,0.00,,---,0.00,VWS V14.01,2013-04-22 00:03:00,
2013-04-21 20:09:00,54.4,34.1,30.39,North,359,0.0,0.0,46,0.00,,---,0.00,VWS V14.01,2013-04-22 00:09:00,
2013-04-21 20:15:00,53.9,34.7,30.39,North,359,0.0,0.0,48,0.00,,---,0.00,VWS V14.01,2013-04-22 00:15:00,
2013-04-21 20:20:00,53.5,34.8,30.40,North,359,0.0,0.0,49,0.00,,---,0.00,VWS V14.01,2013-04-22 00:20:00,
2013-04-21 20:27:00,52.9,34.8,30.40,North,359,0.0,0.0,50,0.00,,---,0.00,VWS V14.01,2013-04-22 00:27:00,
2013-04-21 20:33:00,52.5,34.9,30.40,North,359,0.0,0.0,51,0.00,,---,0.00,VWS V14.01,2013-04-22 00:33:00,
2013-04-21 20:39:00,52.2,34.6,30.40,North,359,0.0,0.0,51,0.00,,---,0.00,VWS V14.01,2013-04-22 00:39:00,
2013-04-21 20:45:00,51.7,35.1,30.40,North,359,0.0,0.0,53,0.00,,---,0.00,VWS V14.01,2013-04-22 00:45:00,
2013-04-21 20:50:00,51.4,34.9,30.41,North,359,0.0,0.0,53,0.00,,---,0.00,VWS V14.01,2013-04-22 00:50:00,
2013-04-21 20:57:00,51.0,35.0,30.41,North,359,0.0,0.0,54,0.00,,---,0.00,VWS V14.01,2013-04-22 00:57:00,
2013-04-21 21:03:00,50.7,35.1,30.41,North,359,0.0,0.0,55,0.00,,---,0.00,VWS V14.01,2013-04-22 01:03:00,
2013-04-21 21:09:00,50.4,36.2,30.41,North,359,0.0,0.0,58,0.00,,---,0.00,VWS V14.01,2013-04-22 01:09:00,
2013-04-21 21:15:00,49.9,35.3,30.41,North,359,0.0,0.0,57,0.00,,---,0.00,VWS V14.01,2013-04-22 01:15:00,
2013-04-21 21:20:00,49.5,35.3,30.42,North,359,0.0,0.0,58,0.00,,---,0.00,VWS V14.01,2013-04-22 01:20:00,
2013-04-21 21:27:00,49.2,35.5,30.42,North,359,0.0,0.0,59,0.00,,---,0.00,VWS V14.01,2013-04-22 01:27:00,
2013-04-21 21:33:00,48.9,35.6,30.42,North,359,0.0,0.0,60,0.00,,---,0.00,VWS V14.01,2013-04-22 01:33:00,
2013-04-21 21:40:00,48.6,35.8,30.42,North,359,0.0,0.0,61,0.00,,---,0.00,VWS V14.01,2013-04-22 01:40:00,
2013-04-21 21:46:00,48.3,35.9,30.42,North,359,0.0,0.0,62,0.00,,---,0.00,VWS V14.01,2013-04-22 01:46:00,
2013-04-21 21:52:00,47.9,36.3,30.43,North,359,0.0,0.0,64,0.00,,---,0.00,VWS V14.01,2013-04-22 01:52:00,
2013-04-21 21:58:00,47.4,36.2,30.43,North,359,0.0,0.0,65,0.00,,---,0.00,VWS V14.01,2013-04-22 01:58:00,
2013-04-21 22:04:00,47.3,36.5,30.43,North,359,0.0,0.0,66,0.00,,---,0.00,VWS V14.01,2013-04-22 02:04:00,
2013-04-21 22:10:00,46.8,36.0,30.43,North,359,0.0,0.0,66,0.00,,---,0.00,VWS V14.01,2013-04-22 02:10:00,
2013-04-21 22:16:00,46.5,36.2,30.43,North,359,0.0,0.0,67,0.00,,---,0.00,VWS V14.01,2013-04-22 02:16:00,
2013-04-21 22:22:00,46.2,35.9,30.43,North,359,0.0,0.0,67,0.00,,---,0.00,VWS V14.01,2013-04-22 02:22:00,
2013-04-21 22:28:00,46.1,36.5,30.43,North,359,0.0,0.0,69,0.00,,---,0.00,VWS V14.01,2013-04-22 02:28:00,
2013-04-21 22:34:00,45.8,36.2,30.43,North,359,0.0,0.0,69,0.00,,---,0.00,VWS V14.01,2013-04-22 02:34:00,
2013-04-21 22:40:00,45.7,36.1,30.44,North,359,0.0,0.0,69,0.00,,---,0.00,VWS V14.01,2013-04-22 02:40:00,
2013-04-21 22:46:00,45.4,35.8,30.44,North,359,0.0,0.0,69,0.00,,---,0.00,VWS V14.01,2013-04-22 02:46:00,
2013-04-21 22:52:00,45.2,36.4,30.44,North,359,0.0,0.0,71,0.00,,---,0.00,VWS V14.01,2013-04-22 02:52:00,
2013-04-21 22:58:00,45.1,36.3,30.44,North,359,0.0,0.0,71,0.00,,---,0.00,VWS V14.01,2013-04-22 02:58:00,
2013-04-21 23:04:00,44.9,36.1,30.44,North,359,0.0,0.0,71,0.00,,---,0.00,VWS V14.01,2013-04-22 03:04:00,
2013-04-21 23:10:00,44.8,36.0,30.43,North,359,0.0,0.0,71,0.00,,---,0.00,VWS V14.01,2013-04-22 03:10:00,
2013-04-21 23:16:00,44.8,36.3,30.43,North,359,0.0,0.0,72,0.00,,---,0.00,VWS V14.01,2013-04-22 03:16:00,
2013-04-21 23:22:00,44.6,36.2,30.43,North,359,0.0,0.0,72,0.00,,---,0.00,VWS V14.01,2013-04-22 03:22:00,
2013-04-21 23:28:00,44.3,36.2,30.43,North,359,0.0,0.0,73,0.00,,---,0.00,VWS V14.01,2013-04-22 03:28:00,
2013-04-21 23:34:00,44.2,35.8,30.43,North,359,0.0,0.0,72,0.00,,---,0.00,VWS V14.01,2013-04-22 03:34:00,
2013-04-21 23:40:00,44.1,36.0,30.42,North,359,0.0,0.0,73,0.00,,---,0.00,VWS V14.01,2013-04-22 03:40:00,
2013-04-21 23:46:00,43.9,36.2,30.42,North,359,0.0,0.0,74,0.00,,---,0.00,VWS V14.01,2013-04-22 03:46:00,
2013-04-21 23:52:00,43.8,36.1,30.42,North,359,0.0,0.0,74,0.00,,---,0.00,VWS V14.01,2013-04-22 03:52:00,
2013-04-21 23:58:00,43.6,36.2,30.42,North,359,0.0,0.0,75,0.00,,---,0.00,VWS V14.01,2013-04-22 03:58:00,